Time;durP1;ratioP1;P1;durP2;ratioP2;P2;SDS_P1;SDS_P2;PMS_P1;PMS_P2;Temp;Humidity;BMP_temperature;BMP_pressure;BME280_temperature;BME280_humidity;BME280_pressure;Samples;Min_cycle;Max_cycle;Signal;HPM_P1;HPM_P2
2023/08/16 00:01:14;;;;;;;;;;;21.90;71.70;;;;;;5034539;28;1967;-67
2023/08/16 00:03:40;;;;;;;;;;;21.90;71.70;;;;;;5045638;28;936;-66
2023/08/16 00:06:09;;;;;;;;;;;21.90;71.60;;;;;;5049581;28;1271;-67
2023/08/16 00:08:34;;;;;;;;;;;21.90;71.70;;;;;;5049248;28;883;-66
2023/08/16 00:11:00;;;;;;;;;;;21.90;71.70;;;;;;5049578;28;830;-66
2023/08/16 00:13:25;;;;;;;;;;;21.90;71.70;;;;;;5050135;28;826;-66
2023/08/16 00:15:51;;;;;;;;;;;21.90;71.70;;;;;;5049128;28;919;-66
2023/08/16 00:18:16;;;;;;;;;;;21.90;71.70;;;;;;5049103;28;1397;-66
2023/08/16 00:20:42;;;;;;;;;;;21.90;71.70;;;;;;5043553;28;1120;-66
2023/08/16 00:23:07;;;;;;;;;;;21.90;71.70;;;;;;5049690;28;1901;-66
2023/08/16 00:25:33;;;;;;;;;;;21.90;71.70;;;;;;5049779;28;839;-66
2023/08/16 00:27:58;;;;;;;;;;;21.90;71.70;;;;;;5049079;28;1355;-66
2023/08/16 00:30:23;;;;;;;;;;;21.90;71.70;;;;;;5049647;28;1657;-66
2023/08/16 00:32:49;;;;;;;;;;;21.90;71.70;;;;;;5049120;28;1355;-66
2023/08/16 00:35:14;;;;;;;;;;;21.90;71.70;;;;;;5049725;28;912;-66
2023/08/16 00:37:40;;;;;;;;;;;21.90;71.70;;;;;;5049616;28;1385;-67
2023/08/16 00:40:06;;;;;;;;;;;21.90;71.80;;;;;;5048883;28;907;-66
2023/08/16 00:42:31;;;;;;;;;;;21.90;71.70;;;;;;5049421;28;1890;-66
2023/08/16 00:44:57;;;;;;;;;;;21.90;71.70;;;;;;5049041;28;839;-66
2023/08/16 00:47:22;;;;;;;;;;;21.90;71.70;;;;;;5049065;28;1263;-66
2023/08/16 00:49:48;;;;;;;;;;;21.90;71.70;;;;;;5048307;28;850;-66
2023/08/16 00:52:13;;;;;;;;;;;21.90;71.70;;;;;;5048733;28;899;-66
2023/08/16 00:54:41;;;;;;;;;;;21.90;71.70;;;;;;5049270;28;883;-66
2023/08/16 00:57:07;;;;;;;;;;;21.90;71.70;;;;;;5048746;28;1370;-66
2023/08/16 00:59:35;;;;;;;;;;;21.90;71.70;;;;;;5041783;28;1285;-66
2023/08/16 01:02:01;;;;;;;;;;;21.90;71.70;;;;;;5047969;28;1910;-66
2023/08/16 01:04:26;;;;;;;;;;;21.90;71.70;;;;;;5048332;28;1284;-66
2023/08/16 01:06:57;;;;;;;;;;;21.90;71.60;;;;;;5044251;28;1351;-67
2023/08/16 01:09:23;;;;;;;;;;;21.90;71.70;;;;;;5048058;28;1276;-67
2023/08/16 01:12:12;;;;;;;;;;;21.90;71.70;;;;;;5045666;28;1795;-67
2023/08/16 01:14:41;;;;;;;;;;;21.90;71.70;;;;;;5041819;28;1481;-67
2023/08/16 01:17:07;;;;;;;;;;;21.90;71.70;;;;;;5049112;28;1240;-67
2023/08/16 01:19:32;;;;;;;;;;;21.90;71.70;;;;;;5047678;28;1028;-67
2023/08/16 01:22:16;;;;;;;;;;;21.90;71.70;;;;;;5049000;28;1910;-67
2023/08/16 01:24:48;;;;;;;;;;;21.90;71.70;;;;;;5049263;28;1608;-67
2023/08/16 01:27:18;;;;;;;;;;;21.90;71.70;;;;;;5041311;28;1347;-66
2023/08/16 01:29:44;;;;;;;;;;;21.90;71.70;;;;;;5038971;28;864;-67
2023/08/16 01:32:09;;;;;;;;;;;21.90;71.70;;;;;;5043708;28;1280;-66
2023/08/16 01:34:35;;;;;;;;;;;21.90;71.70;;;;;;5042167;28;850;-66
2023/08/16 01:37:00;;;;;;;;;;;21.90;71.70;;;;;;5048677;28;1268;-66
2023/08/16 01:39:26;;;;;;;;;;;21.80;71.70;;;;;;5047956;28;899;-66
2023/08/16 01:41:52;;;;;;;;;;;21.90;71.70;;;;;;5048622;28;1965;-66
2023/08/16 01:44:18;;;;;;;;;;;21.90;71.70;;;;;;5040244;28;959;-66
2023/08/16 01:46:43;;;;;;;;;;;21.90;71.70;;;;;;5040446;28;1487;-65
2023/08/16 01:49:09;;;;;;;;;;;21.90;71.70;;;;;;5037700;28;922;-66
2023/08/16 01:51:34;;;;;;;;;;;21.90;71.70;;;;;;5048509;28;998;-67
2023/08/16 01:54:00;;;;;;;;;;;21.90;71.70;;;;;;5031109;28;907;-66
2023/08/16 01:56:25;;;;;;;;;;;21.90;71.70;;;;;;5043205;28;1287;-66
2023/08/16 01:58:51;;;;;;;;;;;21.90;71.70;;;;;;5047842;28;918;-66
2023/08/16 02:01:16;;;;;;;;;;;21.90;71.70;;;;;;5052382;28;871;-65
2023/08/16 02:03:42;;;;;;;;;;;21.90;71.70;;;;;;5046063;28;1960;-65
2023/08/16 02:06:07;;;;;;;;;;;21.90;71.70;;;;;;5044758;28;1357;-65
2023/08/16 02:08:32;;;;;;;;;;;21.90;71.80;;;;;;5052010;28;899;-65
2023/08/16 02:10:58;;;;;;;;;;;21.90;71.70;;;;;;5052366;28;820;-65
2023/08/16 02:13:23;;;;;;;;;;;21.90;71.70;;;;;;5052488;28;828;-65
2023/08/16 02:15:49;;;;;;;;;;;21.90;71.70;;;;;;5052191;28;923;-65
2023/08/16 02:18:14;;;;;;;;;;;21.90;71.70;;;;;;5051510;28;1741;-66
2023/08/16 02:20:40;;;;;;;;;;;21.90;71.70;;;;;;5051997;28;867;-66
2023/08/16 02:23:05;;;;;;;;;;;21.90;71.70;;;;;;5052147;28;1910;-65
2023/08/16 02:25:31;;;;;;;;;;;21.90;71.70;;;;;;5052401;28;839;-65
2023/08/16 02:27:57;;;;;;;;;;;21.90;71.70;;;;;;5048604;28;1283;-65
2023/08/16 02:30:22;;;;;;;;;;;21.90;71.80;;;;;;5050681;28;851;-66
2023/08/16 02:32:48;;;;;;;;;;;21.90;71.70;;;;;;5052005;28;1326;-65
2023/08/16 02:35:13;;;;;;;;;;;21.90;71.80;;;;;;5052229;28;1002;-65
2023/08/16 02:37:40;;;;;;;;;;;21.90;71.70;;;;;;5051869;28;1988;-66
2023/08/16 02:40:07;;;;;;;;;;;21.90;71.80;;;;;;5050768;28;824;-66
2023/08/16 02:42:33;;;;;;;;;;;21.90;71.80;;;;;;5051840;28;1965;-66
2023/08/16 02:44:58;;;;;;;;;;;21.90;71.70;;;;;;5052083;28;859;-66
2023/08/16 02:47:24;;;;;;;;;;;21.90;71.70;;;;;;5051531;28;1247;-66
2023/08/16 02:49:49;;;;;;;;;;;21.90;71.80;;;;;;5051122;28;814;-66
2023/08/16 02:52:15;;;;;;;;;;;21.90;71.70;;;;;;5051680;28;938;-66
2023/08/16 02:54:40;;;;;;;;;;;21.90;71.80;;;;;;5051678;28;883;-66
2023/08/16 02:57:06;;;;;;;;;;;21.90;71.70;;;;;;5043705;28;1272;-66
2023/08/16 02:59:41;;;;;;;;;;;21.90;71.80;;;;;;5050853;28;1076;-67
2023/08/16 03:02:07;;;;;;;;;;;21.90;71.80;;;;;;5043031;28;1913;-67
2023/08/16 03:04:32;;;;;;;;;;;21.90;71.80;;;;;;5051469;28;871;-66
2023/08/16 03:06:57;;;;;;;;;;;21.90;71.80;;;;;;5045669;28;1379;-66
2023/08/16 03:09:23;;;;;;;;;;;21.90;71.80;;;;;;5050473;28;1220;-66
2023/08/16 03:11:49;;;;;;;;;;;21.90;71.70;;;;;;5050103;28;847;-67
2023/08/16 03:14:15;;;;;;;;;;;21.90;71.80;;;;;;5051047;28;827;-66
2023/08/16 03:16:40;;;;;;;;;;;21.90;71.80;;;;;;5051004;28;1260;-65
2023/08/16 03:19:06;;;;;;;;;;;21.90;71.80;;;;;;5051044;28;968;-66
2023/08/16 03:21:34;;;;;;;;;;;21.90;71.80;;;;;;5051339;28;1914;-66
2023/08/16 03:23:59;;;;;;;;;;;21.90;71.80;;;;;;5051190;28;952;-68
2023/08/16 03:26:25;;;;;;;;;;;21.90;71.80;;;;;;5050837;28;1226;-68
2023/08/16 03:28:50;;;;;;;;;;;21.90;71.80;;;;;;5050322;28;1262;-68
2023/08/16 03:31:15;;;;;;;;;;;21.90;71.80;;;;;;5050864;28;1314;-68
2023/08/16 03:33:41;;;;;;;;;;;21.90;71.80;;;;;;5050693;28;1254;-68
2023/08/16 03:36:07;;;;;;;;;;;21.90;71.80;;;;;;5050978;28;876;-68
2023/08/16 03:38:32;;;;;;;;;;;21.90;71.80;;;;;;5050304;28;1227;-67
2023/08/16 03:40:58;;;;;;;;;;;21.90;71.80;;;;;;5050470;28;812;-67
2023/08/16 03:43:23;;;;;;;;;;;21.90;71.80;;;;;;5050550;28;1960;-67
2023/08/16 03:45:48;;;;;;;;;;;21.90;71.80;;;;;;5050621;28;1224;-67
2023/08/16 03:48:14;;;;;;;;;;;21.90;71.80;;;;;;5049979;28;1405;-66
2023/08/16 03:50:39;;;;;;;;;;;21.90;71.80;;;;;;5050460;28;1029;-66
2023/08/16 03:53:05;;;;;;;;;;;21.90;71.80;;;;;;5045916;28;851;-66
2023/08/16 03:55:30;;;;;;;;;;;21.90;72.20;;;;;;5050344;28;912;-66
2023/08/16 03:57:56;;;;;;;;;;;21.90;71.80;;;;;;5049559;28;1286;-66
2023/08/16 04:00:21;;;;;;;;;;;21.90;71.80;;;;;;5047324;28;936;-66
2023/08/16 04:02:47;;;;;;;;;;;21.90;71.80;;;;;;5050055;28;1963;-66
2023/08/16 04:05:12;;;;;;;;;;;21.90;71.80;;;;;;5050568;28;1018;-66
2023/08/16 04:07:38;;;;;;;;;;;21.90;71.80;;;;;;5042122;28;1221;-66
2023/08/16 04:10:04;;;;;;;;;;;21.90;71.80;;;;;;5038101;28;1050;-66
2023/08/16 04:12:30;;;;;;;;;;;21.90;71.80;;;;;;5042469;28;855;-66
2023/08/16 04:14:55;;;;;;;;;;;21.90;71.80;;;;;;5050149;28;902;-66
2023/08/16 04:17:21;;;;;;;;;;;21.90;71.80;;;;;;5050227;28;1279;-66
2023/08/16 04:19:46;;;;;;;;;;;21.90;71.80;;;;;;5049622;28;1038;-66
2023/08/16 04:22:12;;;;;;;;;;;21.90;71.80;;;;;;5049714;28;1951;-66
2023/08/16 04:24:37;;;;;;;;;;;21.90;71.80;;;;;;5050142;28;855;-66
2023/08/16 04:27:04;;;;;;;;;;;21.90;71.80;;;;;;5043099;28;1380;-66
2023/08/16 04:29:30;;;;;;;;;;;21.90;71.80;;;;;;5033269;28;1918;-68
2023/08/16 04:31:56;;;;;;;;;;;21.90;71.80;;;;;;5047762;28;1483;-68
2023/08/16 04:34:22;;;;;;;;;;;21.90;71.80;;;;;;5044821;28;1407;-67
2023/08/16 04:36:47;;;;;;;;;;;21.90;71.80;;;;;;5049156;28;1296;-68
2023/08/16 04:39:12;;;;;;;;;;;21.90;72.60;;;;;;5030022;28;2136;-67
2023/08/16 04:41:38;;;;;;;;;;;21.90;71.80;;;;;;5048698;28;1898;-66
2023/08/16 04:44:04;;;;;;;;;;;21.90;72.60;;;;;;5048489;28;1317;-66
2023/08/16 04:46:30;;;;;;;;;;;21.90;71.90;;;;;;5043543;28;1350;-66
2023/08/16 04:48:56;;;;;;;;;;;21.90;71.80;;;;;;5045324;28;922;-66
2023/08/16 04:51:21;;;;;;;;;;;21.90;71.80;;;;;;5048653;28;902;-67
2023/08/16 04:53:47;;;;;;;;;;;21.90;71.80;;;;;;5049140;28;867;-66
2023/08/16 04:56:12;;;;;;;;;;;21.90;71.80;;;;;;5048789;28;1260;-66
2023/08/16 04:58:37;;;;;;;;;;;21.90;71.80;;;;;;5047987;28;939;-66
2023/08/16 05:01:03;;;;;;;;;;;21.90;71.80;;;;;;5048377;28;921;-66
2023/08/16 05:03:32;;;;;;;;;;;21.90;71.80;;;;;;5039981;28;1969;-66
2023/08/16 05:06:01;;;;;;;;;;;21.90;71.80;;;;;;5048615;28;842;-66
2023/08/16 05:08:26;;;;;;;;;;;21.90;71.80;;;;;;5040330;28;1253;-66
2023/08/16 05:10:52;;;;;;;;;;;21.90;71.90;;;;;;5048792;28;926;-67
2023/08/16 05:13:17;;;;;;;;;;;21.90;71.80;;;;;;5048572;28;822;-67
2023/08/16 05:15:43;;;;;;;;;;;21.90;71.80;;;;;;5048556;28;1659;-66
2023/08/16 05:18:09;;;;;;;;;;;21.90;71.90;;;;;;5047724;28;1378;-67
2023/08/16 05:20:35;;;;;;;;;;;21.90;71.80;;;;;;5043734;28;941;-68
2023/08/16 05:23:00;;;;;;;;;;;21.90;71.80;;;;;;5040649;28;1902;-67
2023/08/16 05:25:26;;;;;;;;;;;21.90;71.80;;;;;;5048751;28;847;-67
2023/08/16 05:27:51;;;;;;;;;;;21.90;71.90;;;;;;5045774;28;1351;-70
2023/08/16 05:30:17;;;;;;;;;;;21.90;71.90;;;;;;5042928;28;2162;-71
2023/08/16 05:32:42;;;;;;;;;;;21.90;71.90;;;;;;5040117;28;1234;-68
2023/08/16 05:35:07;;;;;;;;;;;21.90;71.90;;;;;;5050141;28;862;-68
2023/08/16 05:37:33;;;;;;;;;;;21.90;72.20;;;;;;5052003;28;1299;-67
2023/08/16 05:39:58;;;;;;;;;;;21.90;73.00;;;;;;5042763;28;936;-67
2023/08/16 05:42:26;;;;;;;;;;;21.90;73.00;;;;;;5052143;28;1959;-67
2023/08/16 05:44:51;;;;;;;;;;;21.90;73.10;;;;;;5051319;28;871;-68
2023/08/16 05:47:17;;;;;;;;;;;21.90;73.40;;;;;;5051945;28;1914;-67
2023/08/16 05:49:42;;;;;;;;;;;22.00;73.60;;;;;;5050693;28;1419;-69
2023/08/16 05:52:08;;;;;;;;;;;21.90;73.70;;;;;;5052301;28;1390;-68
2023/08/16 05:54:34;;;;;;;;;;;22.00;73.80;;;;;;5051606;28;837;-67
2023/08/16 05:57:00;;;;;;;;;;;22.00;73.80;;;;;;5052189;28;1256;-67
2023/08/16 05:59:25;;;;;;;;;;;22.00;73.90;;;;;;5045922;28;4300;-66
2023/08/16 06:01:51;;;;;;;;;;;22.00;73.90;;;;;;5052081;28;1969;-67
2023/08/16 06:04:17;;;;;;;;;;;22.00;73.70;;;;;;5049134;28;942;-67
2023/08/16 06:06:42;;;;;;;;;;;22.00;74.10;;;;;;5053471;28;1413;-67
2023/08/16 06:09:07;;;;;;;;;;;22.00;73.80;;;;;;5051034;28;883;-66
2023/08/16 06:11:33;;;;;;;;;;;22.00;73.80;;;;;;5050184;28;1202;-69
2023/08/16 06:14:00;;;;;;;;;;;22.00;74.30;;;;;;5051320;28;865;-67
2023/08/16 06:16:26;;;;;;;;;;;22.00;74.80;;;;;;5050539;28;1295;-66
2023/08/16 06:18:52;;;;;;;;;;;22.00;74.80;;;;;;5054578;28;1250;-67
2023/08/16 06:21:17;;;;;;;;;;;22.00;74.90;;;;;;5051331;28;887;-68
2023/08/16 06:23:43;;;;;;;;;;;22.00;74.30;;;;;;5051276;28;1905;-68
2023/08/16 06:26:09;;;;;;;;;;;22.00;74.90;;;;;;5050960;28;813;-68
2023/08/16 06:28:35;;;;;;;;;;;22.00;75.40;;;;;;5050445;28;1165;-66
2023/08/16 06:31:00;;;;;;;;;;;22.00;75.40;;;;;;5051670;28;895;-67
2023/08/16 06:33:26;;;;;;;;;;;22.00;75.00;;;;;;5050961;28;912;-67
2023/08/16 06:35:54;;;;;;;;;;;22.00;75.50;;;;;;5051076;28;922;-67
2023/08/16 06:38:21;;;;;;;;;;;22.00;75.50;;;;;;5050506;28;1335;-67
2023/08/16 06:40:46;;;;;;;;;;;22.00;75.30;;;;;;5050021;28;911;-68
2023/08/16 06:43:12;;;;;;;;;;;22.00;75.50;;;;;;5050768;28;1977;-69
2023/08/16 06:45:37;;;;;;;;;;;22.00;74.90;;;;;;5050870;28;1243;-68
2023/08/16 06:48:03;;;;;;;;;;;22.00;75.30;;;;;;5050291;28;1358;-68
2023/08/16 06:50:29;;;;;;;;;;;22.00;76.00;;;;;;5045893;28;836;-68
2023/08/16 06:52:54;;;;;;;;;;;22.00;76.00;;;;;;5049271;28;796;-68
2023/08/16 06:55:20;;;;;;;;;;;22.10;75.60;;;;;;5051149;28;934;-67
2023/08/16 06:57:45;;;;;;;;;;;22.10;75.70;;;;;;5050798;28;1352;-66
2023/08/16 07:00:11;;;;;;;;;;;22.00;75.50;;;;;;5051550;28;942;-67
2023/08/16 07:02:37;;;;;;;;;;;22.00;75.50;;;;;;5050993;28;1910;-67
2023/08/16 07:05:03;;;;;;;;;;;22.00;75.40;;;;;;5042468;28;894;-67
2023/08/16 07:07:30;;;;;;;;;;;22.10;75.40;;;;;;5049985;28;1743;-67
2023/08/16 07:09:55;;;;;;;;;;;22.10;75.80;;;;;;5050732;28;963;-67
2023/08/16 07:12:21;;;;;;;;;;;22.10;75.60;;;;;;5051308;28;851;-67
2023/08/16 07:14:48;;;;;;;;;;;22.10;75.70;;;;;;5051183;28;977;-67
2023/08/16 07:17:13;;;;;;;;;;;22.10;76.40;;;;;;5050670;28;1337;-67
2023/08/16 07:19:39;;;;;;;;;;;22.10;76.30;;;;;;5050308;28;1306;-67
2023/08/16 07:22:04;;;;;;;;;;;22.00;75.70;;;;;;5051005;28;1910;-68
2023/08/16 07:24:30;;;;;;;;;;;22.00;75.90;;;;;;5051161;28;872;-67
2023/08/16 07:26:56;;;;;;;;;;;22.10;75.70;;;;;;5051357;28;1366;-67
2023/08/16 07:29:21;;;;;;;;;;;22.10;76.50;;;;;;5049244;28;2010;-68
2023/08/16 07:31:48;;;;;;;;;;;22.10;76.40;;;;;;5050518;28;1354;-68
2023/08/16 07:34:13;;;;;;;;;;;22.10;76.60;;;;;;5051108;28;1311;-68
2023/08/16 07:36:39;;;;;;;;;;;22.10;76.70;;;;;;5041641;28;1474;-68
2023/08/16 07:39:04;;;;;;;;;;;22.10;76.10;;;;;;5049852;28;815;-67
2023/08/16 07:41:30;;;;;;;;;;;22.10;75.20;;;;;;5050659;28;923;-67
2023/08/16 07:43:55;;;;;;;;;;;22.00;75.30;;;;;;5050577;28;1897;-67
2023/08/16 07:46:21;;;;;;;;;;;22.00;75.70;;;;;;5044179;28;1283;-67
2023/08/16 07:48:46;;;;;;;;;;;22.10;75.60;;;;;;5049009;28;955;-69
2023/08/16 07:51:11;;;;;;;;;;;22.10;75.10;;;;;;5050878;28;850;-69
2023/08/16 07:53:37;;;;;;;;;;;22.10;75.90;;;;;;5046564;28;1248;-68
2023/08/16 07:56:02;;;;;;;;;;;22.10;76.30;;;;;;5050005;28;1239;-67
2023/08/16 07:58:28;;;;;;;;;;;22.10;75.80;;;;;;5043101;28;1745;-68
2023/08/16 08:00:54;;;;;;;;;;;22.10;76.10;;;;;;5049165;28;1893;-68
2023/08/16 08:03:21;;;;;;;;;;;22.10;75.40;;;;;;5047061;28;1969;-68
2023/08/16 08:05:46;;;;;;;;;;;22.10;75.50;;;;;;5049516;28;1273;-68
2023/08/16 08:08:12;;;;;;;;;;;22.10;75.20;;;;;;5048377;28;1370;-69
2023/08/16 08:10:41;;;;;;;;;;;22.10;75.30;;;;;;5049942;28;1438;-68
2023/08/16 08:13:08;;;;;;;;;;;22.10;75.10;;;;;;5039118;28;1376;-68
2023/08/16 08:15:33;;;;;;;;;;;22.10;75.30;;;;;;5049150;28;1045;-68
2023/08/16 08:17:59;;;;;;;;;;;22.10;75.20;;;;;;5042541;28;1311;-68
2023/08/16 08:20:24;;;;;;;;;;;22.20;75.30;;;;;;5032058;28;1445;-67
2023/08/16 08:22:50;;;;;;;;;;;22.10;75.30;;;;;;5049432;28;1902;-67
2023/08/16 08:25:15;;;;;;;;;;;22.20;75.50;;;;;;5049516;28;1352;-68
2023/08/16 08:27:41;;;;;;;;;;;22.20;75.30;;;;;;5049719;28;1357;-68
2023/08/16 08:30:07;;;;;;;;;;;22.20;75.70;;;;;;5048520;28;1010;-67
2023/08/16 08:32:33;;;;;;;;;;;22.20;76.00;;;;;;5049902;28;1345;-67
2023/08/16 08:34:58;;;;;;;;;;;22.20;76.30;;;;;;5032054;28;1183;-67
2023/08/16 08:37:24;;;;;;;;;;;22.20;77.50;;;;;;5049286;28;1231;-68
2023/08/16 08:39:49;;;;;;;;;;;22.30;77.10;;;;;;5038863;28;1402;-68
2023/08/16 08:42:14;;;;;;;;;;;22.30;75.50;;;;;;5047041;28;1922;-69
2023/08/16 08:44:40;;;;;;;;;;;22.30;75.20;;;;;;5042182;28;846;-68
2023/08/16 08:47:05;;;;;;;;;;;22.30;75.10;;;;;;5040965;28;1332;-68
2023/08/16 08:49:32;;;;;;;;;;;22.30;74.50;;;;;;5039897;28;1626;-67
2023/08/16 08:51:58;;;;;;;;;;;22.20;74.80;;;;;;5047697;28;1037;-67
2023/08/16 08:54:23;;;;;;;;;;;22.20;75.20;;;;;;5031074;28;1234;-68
2023/08/16 08:56:49;;;;;;;;;;;22.20;75.00;;;;;;5043271;28;1291;-70
2023/08/16 08:59:15;;;;;;;;;;;22.20;75.10;;;;;;5041144;28;887;-67
2023/08/16 09:01:40;;;;;;;;;;;22.20;75.10;;;;;;5042618;28;1914;-66
2023/08/16 09:04:06;;;;;;;;;;;22.20;74.90;;;;;;5049639;28;942;-66
2023/08/16 09:06:32;;;;;;;;;;;22.20;74.70;;;;;;5041908;28;1315;-67
2023/08/16 09:08:57;;;;;;;;;;;22.20;74.90;;;;;;5048548;28;894;-66
2023/08/16 09:11:24;;;;;;;;;;;22.20;75.00;;;;;;5050001;28;838;-66
2023/08/16 09:13:50;;;;;;;;;;;22.20;75.40;;;;;;5044989;28;891;-66
2023/08/16 09:16:15;;;;;;;;;;;22.20;74.90;;;;;;5052917;28;1276;-66
2023/08/16 09:18:48;;;;;;;;;;;22.20;75.30;;;;;;5052818;28;1274;-67
2023/08/16 09:21:14;;;;;;;;;;;22.20;75.50;;;;;;5053127;28;885;-66
2023/08/16 09:23:39;;;;;;;;;;;22.20;75.20;;;;;;5053141;28;1906;-66
2023/08/16 09:26:12;;;;;;;;;;;22.20;75.60;;;;;;5051328;28;944;-66
2023/08/16 09:28:37;;;;;;;;;;;22.20;76.10;;;;;;5051099;28;1369;-66
2023/08/16 09:31:06;;;;;;;;;;;22.20;75.90;;;;;;5052955;28;839;-66
2023/08/16 09:33:33;;;;;;;;;;;22.20;76.00;;;;;;5046319;28;1270;-66
2023/08/16 09:35:58;;;;;;;;;;;22.20;75.70;;;;;;5048257;28;915;-66
2023/08/16 09:38:24;;;;;;;;;;;22.20;75.30;;;;;;5052400;28;1661;-67
2023/08/16 09:40:50;;;;;;;;;;;22.20;75.30;;;;;;5053223;28;879;-66
2023/08/16 09:43:15;;;;;;;;;;;22.30;75.20;;;;;;5058792;28;1952;-67
2023/08/16 09:45:41;;;;;;;;;;;22.20;75.40;;;;;;5053200;28;926;-66
2023/08/16 09:48:08;;;;;;;;;;;22.20;75.60;;;;;;5048958;28;1255;-67
2023/08/16 09:50:34;;;;;;;;;;;22.20;75.30;;;;;;5046120;28;1254;-67
2023/08/16 09:53:01;;;;;;;;;;;22.20;75.60;;;;;;5045725;28;1775;-67
2023/08/16 09:55:31;;;;;;;;;;;22.20;75.40;;;;;;5046363;28;1454;-68
2023/08/16 09:57:57;;;;;;;;;;;22.20;75.50;;;;;;5044701;28;1276;-66
2023/08/16 10:00:23;;;;;;;;;;;22.30;75.70;;;;;;5053663;28;976;-66
2023/08/16 10:02:50;;;;;;;;;;;22.20;75.70;;;;;;5050601;28;2011;-66
2023/08/16 10:05:16;;;;;;;;;;;22.20;75.30;;;;;;5049981;28;1175;-66
2023/08/16 10:07:41;;;;;;;;;;;22.20;75.10;;;;;;5044737;28;1366;-67
2023/08/16 10:10:07;;;;;;;;;;;22.20;75.60;;;;;;5041400;28;869;-66
2023/08/16 10:12:34;;;;;;;;;;;22.30;76.20;;;;;;5047416;28;859;-66
2023/08/16 10:15:00;;;;;;;;;;;22.30;76.10;;;;;;5052482;28;914;-66
2023/08/16 10:17:28;;;;;;;;;;;22.30;76.00;;;;;;5052127;28;1406;-66
2023/08/16 10:19:55;;;;;;;;;;;22.30;76.00;;;;;;5050684;28;2308;-66
2023/08/16 10:22:27;;;;;;;;;;;22.20;75.80;;;;;;5044302;28;1898;-66
2023/08/16 10:24:53;;;;;;;;;;;22.20;76.00;;;;;;5050237;28;1406;-66
2023/08/16 10:27:18;;;;;;;;;;;22.20;75.90;;;;;;5046753;28;1306;-66
2023/08/16 10:29:44;;;;;;;;;;;22.30;76.10;;;;;;5044847;28;812;-66
2023/08/16 10:32:11;;;;;;;;;;;22.30;76.40;;;;;;5041090;28;873;-66
2023/08/16 10:34:37;;;;;;;;;;;22.30;75.90;;;;;;5045657;28;997;-65
2023/08/16 10:37:03;;;;;;;;;;;22.30;76.20;;;;;;5044712;28;1351;-66
2023/08/16 10:39:29;;;;;;;;;;;22.20;76.10;;;;;;5050828;28;884;-65
2023/08/16 10:42:06;;;;;;;;;;;22.20;75.90;;;;;;5052210;28;1955;-66
2023/08/16 10:44:32;;;;;;;;;;;22.20;75.90;;;;;;5051819;28;915;-67
2023/08/16 10:46:57;;;;;;;;;;;22.20;76.60;;;;;;5057336;28;1378;-66
2023/08/16 10:49:23;;;;;;;;;;;22.20;76.70;;;;;;5044131;28;918;-66
2023/08/16 10:51:51;;;;;;;;;;;22.20;76.50;;;;;;5051172;28;1033;-66
2023/08/16 10:54:17;;;;;;;;;;;22.30;77.00;;;;;;5050842;28;874;-66
2023/08/16 10:56:49;;;;;;;;;;;22.30;78.10;;;;;;5033738;28;1381;-66
2023/08/16 10:59:14;;;;;;;;;;;22.30;80.80;;;;;;5050488;28;922;-66
2023/08/16 11:02:03;;;;;;;;;;;22.40;80.00;;;;;;5042602;28;1917;-66
2023/08/16 11:04:34;;;;;;;;;;;22.50;80.40;;;;;;5050305;28;1242;-66
2023/08/16 11:07:01;;;;;;;;;;;22.50;79.20;;;;;;5045257;28;1289;-66
2023/08/16 11:09:29;;;;;;;;;;;22.50;78.60;;;;;;5050503;28;922;-66
2023/08/16 11:11:55;;;;;;;;;;;22.60;77.60;;;;;;5046326;28;2228;-67
2023/08/16 11:14:21;;;;;;;;;;;22.60;77.00;;;;;;5030296;28;4194;-67
2023/08/16 11:16:46;;;;;;;;;;;22.50;75.90;;;;;;5046720;28;4073;-66
2023/08/16 11:19:14;;;;;;;;;;;22.50;75.90;;;;;;5050133;28;1279;-66
2023/08/16 11:21:44;;;;;;;;;;;22.50;77.40;;;;;;5051371;28;870;-66
2023/08/16 11:24:09;;;;;;;;;;;22.60;78.20;;;;;;5050472;28;843;-65
2023/08/16 11:26:38;;;;;;;;;;;22.70;77.40;;;;;;5055405;28;1246;-65
2023/08/16 11:29:03;;;;;;;;;;;22.70;78.20;;;;;;5050318;28;956;-66
2023/08/16 11:31:29;;;;;;;;;;;22.80;77.40;;;;;;5050996;28;947;-65
2023/08/16 11:33:55;;;;;;;;;;;22.80;77.00;;;;;;5050417;28;950;-64
2023/08/16 11:36:20;;;;;;;;;;;22.90;77.30;;;;;;5051046;28;1317;-65
2023/08/16 11:38:49;;;;;;;;;;;22.90;76.30;;;;;;5050649;28;909;-65
2023/08/16 11:41:19;;;;;;;;;;;23.00;76.20;;;;;;5050868;28;819;-65
2023/08/16 11:43:44;;;;;;;;;;;22.90;75.00;;;;;;5056741;28;1906;-65
2023/08/16 11:46:10;;;;;;;;;;;22.90;74.70;;;;;;5047690;28;843;-65
2023/08/16 11:48:35;;;;;;;;;;;22.90;75.70;;;;;;5050140;28;1278;-66
2023/08/16 11:51:01;;;;;;;;;;;22.90;75.60;;;;;;5050590;28;934;-66
2023/08/16 11:53:29;;;;;;;;;;;22.90;75.50;;;;;;5050594;28;1026;-66
2023/08/16 11:55:59;;;;;;;;;;;22.90;75.90;;;;;;5043331;28;886;-66
2023/08/16 11:58:24;;;;;;;;;;;22.80;75.70;;;;;;5050149;28;1269;-66
2023/08/16 12:00:51;;;;;;;;;;;22.80;75.70;;;;;;5046905;28;915;-66
2023/08/16 12:03:17;;;;;;;;;;;22.80;75.50;;;;;;5041920;28;1981;-66
2023/08/16 12:05:43;;;;;;;;;;;22.80;74.60;;;;;;5050457;28;1100;-65
2023/08/16 12:08:09;;;;;;;;;;;22.80;74.70;;;;;;5050229;28;1260;-66
2023/08/16 12:10:34;;;;;;;;;;;22.70;75.40;;;;;;5046237;28;1544;-67
2023/08/16 12:13:09;;;;;;;;;;;22.80;76.00;;;;;;5044839;28;1357;-69
2023/08/16 12:15:35;;;;;;;;;;;22.80;75.70;;;;;;5031479;28;876;-68
2023/08/16 12:18:00;;;;;;;;;;;22.80;75.60;;;;;;5049148;28;1262;-68
2023/08/16 12:20:26;;;;;;;;;;;22.80;76.10;;;;;;5049630;28;1385;-68
2023/08/16 12:22:55;;;;;;;;;;;22.90;76.00;;;;;;5049700;28;1971;-68
2023/08/16 12:25:20;;;;;;;;;;;22.90;75.10;;;;;;5049307;28;871;-68
2023/08/16 12:27:46;;;;;;;;;;;22.80;74.00;;;;;;5049635;28;1299;-68
2023/08/16 12:30:11;;;;;;;;;;;22.80;73.70;;;;;;5049824;28;1129;-69
2023/08/16 12:32:37;;;;;;;;;;;22.80;73.50;;;;;;5046705;28;1274;-70
2023/08/16 12:35:05;;;;;;;;;;;22.70;74.00;;;;;;5040478;28;1486;-71
2023/08/16 12:37:30;;;;;;;;;;;22.70;74.20;;;;;;5044926;28;1307;-70
2023/08/16 12:39:56;;;;;;;;;;;22.70;74.10;;;;;;5048916;28;954;-68
2023/08/16 12:42:21;;;;;;;;;;;22.60;73.90;;;;;;5042436;28;1894;-68
2023/08/16 12:44:47;;;;;;;;;;;22.60;74.10;;;;;;5043443;28;1079;-67
2023/08/16 12:47:12;;;;;;;;;;;22.60;74.20;;;;;;5049132;28;1260;-69
2023/08/16 12:49:38;;;;;;;;;;;22.60;74.20;;;;;;5050891;28;1022;-68
2023/08/16 12:52:03;;;;;;;;;;;22.60;74.20;;;;;;5042667;28;871;-70
2023/08/16 12:54:29;;;;;;;;;;;22.60;74.20;;;;;;5041539;28;966;-68
2023/08/16 12:56:54;;;;;;;;;;;22.60;74.20;;;;;;5049192;28;1315;-68
2023/08/16 12:59:20;;;;;;;;;;;22.60;74.20;;;;;;5030848;28;1632;-70
2023/08/16 13:01:47;;;;;;;;;;;22.60;73.90;;;;;;5049524;28;1914;-69
2023/08/16 13:04:13;;;;;;;;;;;22.60;73.90;;;;;;5048411;28;915;-69
2023/08/16 13:06:38;;;;;;;;;;;22.60;74.00;;;;;;5049775;28;1247;-69
2023/08/16 13:09:06;;;;;;;;;;;22.60;74.20;;;;;;5048598;28;1066;-69
2023/08/16 13:11:32;;;;;;;;;;;22.60;74.10;;;;;;5050026;28;852;-69
2023/08/16 13:13:57;;;;;;;;;;;22.60;74.20;;;;;;5049349;28;825;-69
2023/08/16 13:16:23;;;;;;;;;;;22.60;73.80;;;;;;5043801;28;1370;-68
2023/08/16 13:18:48;;;;;;;;;;;22.60;74.20;;;;;;5031095;28;1297;-69
2023/08/16 13:21:13;;;;;;;;;;;22.60;74.30;;;;;;5049848;28;1013;-70
2023/08/16 13:23:39;;;;;;;;;;;22.60;74.80;;;;;;5049534;28;1914;-71
2023/08/16 13:26:05;;;;;;;;;;;22.60;76.10;;;;;;5047425;28;1191;-70
2023/08/16 13:28:30;;;;;;;;;;;22.70;75.70;;;;;;5048770;28;1336;-70
2023/08/16 13:30:56;;;;;;;;;;;22.70;76.20;;;;;;5049617;28;1069;-70
2023/08/16 13:33:21;;;;;;;;;;;22.70;75.60;;;;;;5049481;28;1262;-70
2023/08/16 13:35:47;;;;;;;;;;;22.70;74.70;;;;;;5049719;28;1042;-69
2023/08/16 13:38:13;;;;;;;;;;;22.70;75.10;;;;;;5048958;28;1372;-70
2023/08/16 13:40:38;;;;;;;;;;;22.80;75.10;;;;;;5049215;28;835;-70
2023/08/16 13:43:06;;;;;;;;;;;22.80;74.70;;;;;;5048896;28;1898;-69
2023/08/16 13:45:32;;;;;;;;;;;22.70;74.20;;;;;;5041710;28;930;-69
2023/08/16 13:47:57;;;;;;;;;;;22.70;74.50;;;;;;5043148;28;1289;-70
2023/08/16 13:50:23;;;;;;;;;;;22.80;74.40;;;;;;5048600;28;947;-70
2023/08/16 13:52:48;;;;;;;;;;;22.70;73.80;;;;;;5049540;28;943;-70
2023/08/16 13:55:16;;;;;;;;;;;22.70;74.20;;;;;;5049729;28;1057;-70
2023/08/16 13:57:42;;;;;;;;;;;22.70;74.30;;;;;;5052819;28;1276;-69
2023/08/16 14:00:08;;;;;;;;;;;22.70;74.20;;;;;;5052635;28;812;-68
2023/08/16 14:02:34;;;;;;;;;;;22.70;74.50;;;;;;5052536;28;1971;-69
2023/08/16 14:04:59;;;;;;;;;;;22.80;74.60;;;;;;5052875;28;1936;-68
2023/08/16 14:07:25;;;;;;;;;;;22.80;74.10;;;;;;5051166;28;1905;-70
2023/08/16 14:09:51;;;;;;;;;;;22.80;73.70;;;;;;5052265;28;1504;-70
2023/08/16 14:12:17;;;;;;;;;;;22.90;73.70;;;;;;5044742;28;1372;-70
2023/08/16 14:14:42;;;;;;;;;;;23.00;73.60;;;;;;5052322;28;1654;-70
2023/08/16 14:17:08;;;;;;;;;;;23.00;73.20;;;;;;5048097;28;1367;-70
2023/08/16 14:19:33;;;;;;;;;;;23.00;73.10;;;;;;5050906;28;1291;-70
2023/08/16 14:21:59;;;;;;;;;;;23.00;72.80;;;;;;5057004;28;1961;-70
2023/08/16 14:24:25;;;;;;;;;;;23.10;72.80;;;;;;5053363;28;1409;-72
2023/08/16 14:26:50;;;;;;;;;;;23.10;72.80;;;;;;5054041;28;1469;-70
2023/08/16 14:29:16;;;;;;;;;;;23.10;72.80;;;;;;5050352;28;1375;-70